sensor_id;sensor_type;location;lat;lon;timestamp;P1;durP1;ratioP1;P2;durP2;ratioP2
9783;SDS011;4931;44.874;-1.092;2023-07-13T00:00:27;7.60;;;3.17;;
9783;SDS011;4931;44.874;-1.092;2023-07-13T00:02:52;7.65;;;3.88;;
9783;SDS011;4931;44.874;-1.092;2023-07-13T00:05:21;8.80;;;3.50;;
9783;SDS011;4931;44.874;-1.092;2023-07-13T00:07:48;10.32;;;3.60;;
9783;SDS011;4931;44.874;-1.092;2023-07-13T00:10:14;8.38;;;3.85;;
9783;SDS011;4931;44.874;-1.092;2023-07-13T00:12:40;8.38;;;3.88;;
9783;SDS011;4931;44.874;-1.092;2023-07-13T00:15:07;8.23;;;3.60;;
9783;SDS011;4931;44.874;-1.092;2023-07-13T00:17:51;11.25;;;3.90;;
9783;SDS011;4931;44.874;-1.092;2023-07-13T00:20:18;7.78;;;3.58;;
9783;SDS011;4931;44.874;-1.092;2023-07-13T00:22:47;7.97;;;4.18;;
9783;SDS011;4931;44.874;-1.092;2023-07-13T00:25:13;7.75;;;3.85;;
9783;SDS011;4931;44.874;-1.092;2023-07-13T00:27:39;7.35;;;3.58;;
9783;SDS011;4931;44.874;-1.092;2023-07-13T00:30:04;9.90;;;3.83;;
9783;SDS011;4931;44.874;-1.092;2023-07-13T00:32:30;11.90;;;4.03;;
9783;SDS011;4931;44.874;-1.092;2023-07-13T00:34:56;6.20;;;3.47;;
9783;SDS011;4931;44.874;-1.092;2023-07-13T00:37:23;6.68;;;3.38;;
9783;SDS011;4931;44.874;-1.092;2023-07-13T00:39:49;7.70;;;3.40;;
9783;SDS011;4931;44.874;-1.092;2023-07-13T00:42:14;5.55;;;3.10;;
9783;SDS011;4931;44.874;-1.092;2023-07-13T00:44:40;7.50;;;3.25;;
9783;SDS011;4931;44.874;-1.092;2023-07-13T00:47:05;7.07;;;3.40;;
9783;SDS011;4931;44.874;-1.092;2023-07-13T00:49:32;6.47;;;3.97;;
9783;SDS011;4931;44.874;-1.092;2023-07-13T00:52:02;8.55;;;3.20;;
9783;SDS011;4931;44.874;-1.092;2023-07-13T00:54:38;8.15;;;3.90;;
9783;SDS011;4931;44.874;-1.092;2023-07-13T00:57:12;5.55;;;3.00;;
9783;SDS011;4931;44.874;-1.092;2023-07-13T00:59:42;6.03;;;3.63;;
9783;SDS011;4931;44.874;-1.092;2023-07-13T01:02:10;6.43;;;3.15;;
9783;SDS011;4931;44.874;-1.092;2023-07-13T01:04:36;6.97;;;2.85;;
9783;SDS011;4931;44.874;-1.092;2023-07-13T01:07:03;8.40;;;3.40;;
9783;SDS011;4931;44.874;-1.092;2023-07-13T01:09:31;7.75;;;3.45;;
9783;SDS011;4931;44.874;-1.092;2023-07-13T01:11:57;5.97;;;3.35;;
9783;SDS011;4931;44.874;-1.092;2023-07-13T01:14:22;7.22;;;3.40;;
9783;SDS011;4931;44.874;-1.092;2023-07-13T01:16:49;8.32;;;3.50;;
9783;SDS011;4931;44.874;-1.092;2023-07-13T01:19:35;6.03;;;3.15;;
9783;SDS011;4931;44.874;-1.092;2023-07-13T01:22:25;7.38;;;3.30;;
9783;SDS011;4931;44.874;-1.092;2023-07-13T01:24:52;6.90;;;3.58;;
9783;SDS011;4931;44.874;-1.092;2023-07-13T01:27:22;5.88;;;3.42;;
9783;SDS011;4931;44.874;-1.092;2023-07-13T01:29:50;7.50;;;3.45;;
9783;SDS011;4931;44.874;-1.092;2023-07-13T01:32:21;5.72;;;3.65;;
9783;SDS011;4931;44.874;-1.092;2023-07-13T01:34:52;8.20;;;3.88;;
9783;SDS011;4931;44.874;-1.092;2023-07-13T01:37:22;6.05;;;3.28;;
9783;SDS011;4931;44.874;-1.092;2023-07-13T01:39:49;7.82;;;3.75;;
9783;SDS011;4931;44.874;-1.092;2023-07-13T01:42:15;7.10;;;4.05;;
9783;SDS011;4931;44.874;-1.092;2023-07-13T01:44:40;9.32;;;4.05;;
9783;SDS011;4931;44.874;-1.092;2023-07-13T01:47:06;6.75;;;3.97;;
9783;SDS011;4931;44.874;-1.092;2023-07-13T01:49:32;6.30;;;3.50;;
9783;SDS011;4931;44.874;-1.092;2023-07-13T01:51:57;6.25;;;4.47;;
9783;SDS011;4931;44.874;-1.092;2023-07-13T01:54:23;6.32;;;3.70;;
9783;SDS011;4931;44.874;-1.092;2023-07-13T01:56:48;8.40;;;3.55;;
9783;SDS011;4931;44.874;-1.092;2023-07-13T01:59:14;5.60;;;3.28;;
9783;SDS011;4931;44.874;-1.092;2023-07-13T02:01:39;5.03;;;3.38;;
9783;SDS011;4931;44.874;-1.092;2023-07-13T02:04:05;7.47;;;3.30;;
9783;SDS011;4931;44.874;-1.092;2023-07-13T02:06:30;6.82;;;3.58;;
9783;SDS011;4931;44.874;-1.092;2023-07-13T02:08:56;4.63;;;3.35;;
9783;SDS011;4931;44.874;-1.092;2023-07-13T02:11:22;14.68;;;4.65;;
9783;SDS011;4931;44.874;-1.092;2023-07-13T02:13:47;5.80;;;3.90;;
9783;SDS011;4931;44.874;-1.092;2023-07-13T02:16:13;7.13;;;3.15;;
9783;SDS011;4931;44.874;-1.092;2023-07-13T02:18:39;8.48;;;3.35;;
9783;SDS011;4931;44.874;-1.092;2023-07-13T02:21:04;7.07;;;3.53;;
9783;SDS011;4931;44.874;-1.092;2023-07-13T02:23:30;8.93;;;3.60;;
9783;SDS011;4931;44.874;-1.092;2023-07-13T02:25:56;9.60;;;3.90;;
9783;SDS011;4931;44.874;-1.092;2023-07-13T02:28:22;5.45;;;3.53;;
9783;SDS011;4931;44.874;-1.092;2023-07-13T02:30:48;9.20;;;4.22;;
9783;SDS011;4931;44.874;-1.092;2023-07-13T02:33:13;7.20;;;3.53;;
9783;SDS011;4931;44.874;-1.092;2023-07-13T02:35:39;7.22;;;3.50;;
9783;SDS011;4931;44.874;-1.092;2023-07-13T02:38:04;7.25;;;3.80;;
9783;SDS011;4931;44.874;-1.092;2023-07-13T02:40:30;6.63;;;3.67;;
9783;SDS011;4931;44.874;-1.092;2023-07-13T02:42:58;7.55;;;3.90;;
9783;SDS011;4931;44.874;-1.092;2023-07-13T02:45:24;7.15;;;3.72;;
9783;SDS011;4931;44.874;-1.092;2023-07-13T02:47:49;8.05;;;3.50;;
9783;SDS011;4931;44.874;-1.092;2023-07-13T02:50:15;7.03;;;3.60;;
9783;SDS011;4931;44.874;-1.092;2023-07-13T02:52:40;7.10;;;3.60;;
9783;SDS011;4931;44.874;-1.092;2023-07-13T02:55:05;8.63;;;3.50;;
9783;SDS011;4931;44.874;-1.092;2023-07-13T02:57:31;5.88;;;3.58;;
9783;SDS011;4931;44.874;-1.092;2023-07-13T02:59:59;4.88;;;3.83;;
9783;SDS011;4931;44.874;-1.092;2023-07-13T03:02:24;4.53;;;3.80;;
9783;SDS011;4931;44.874;-1.092;2023-07-13T03:04:53;8.32;;;3.97;;
9783;SDS011;4931;44.874;-1.092;2023-07-13T03:07:19;6.40;;;3.63;;
9783;SDS011;4931;44.874;-1.092;2023-07-13T03:09:45;8.35;;;3.60;;
9783;SDS011;4931;44.874;-1.092;2023-07-13T03:12:10;5.38;;;3.55;;
9783;SDS011;4931;44.874;-1.092;2023-07-13T03:14:36;8.55;;;3.72;;
9783;SDS011;4931;44.874;-1.092;2023-07-13T03:17:01;6.22;;;4.00;;
9783;SDS011;4931;44.874;-1.092;2023-07-13T03:19:26;8.05;;;3.67;;
9783;SDS011;4931;44.874;-1.092;2023-07-13T03:21:52;6.82;;;4.03;;
9783;SDS011;4931;44.874;-1.092;2023-07-13T03:24:17;7.53;;;3.80;;
9783;SDS011;4931;44.874;-1.092;2023-07-13T03:26:43;5.93;;;3.80;;
9783;SDS011;4931;44.874;-1.092;2023-07-13T03:29:08;7.28;;;3.50;;
9783;SDS011;4931;44.874;-1.092;2023-07-13T03:31:34;5.28;;;3.35;;
9783;SDS011;4931;44.874;-1.092;2023-07-13T03:34:01;5.82;;;4.00;;
9783;SDS011;4931;44.874;-1.092;2023-07-13T03:36:28;5.75;;;3.63;;
9783;SDS011;4931;44.874;-1.092;2023-07-13T03:38:57;7.00;;;3.63;;
9783;SDS011;4931;44.874;-1.092;2023-07-13T03:41:24;5.63;;;3.88;;
9783;SDS011;4931;44.874;-1.092;2023-07-13T03:43:51;4.03;;;3.50;;
9783;SDS011;4931;44.874;-1.092;2023-07-13T03:46:16;5.95;;;3.70;;
9783;SDS011;4931;44.874;-1.092;2023-07-13T03:48:44;6.00;;;3.50;;
9783;SDS011;4931;44.874;-1.092;2023-07-13T03:51:11;7.00;;;3.85;;
9783;SDS011;4931;44.874;-1.092;2023-07-13T03:53:40;6.28;;;3.95;;
9783;SDS011;4931;44.874;-1.092;2023-07-13T03:56:07;8.77;;;4.22;;
9783;SDS011;4931;44.874;-1.092;2023-07-13T03:58:35;6.25;;;3.80;;
9783;SDS011;4931;44.874;-1.092;2023-07-13T04:01:02;6.13;;;3.85;;
9783;SDS011;4931;44.874;-1.092;2023-07-13T04:03:30;5.57;;;3.88;;
9783;SDS011;4931;44.874;-1.092;2023-07-13T04:05:58;6.63;;;3.80;;
9783;SDS011;4931;44.874;-1.092;2023-07-13T04:08:28;9.27;;;4.22;;
9783;SDS011;4931;44.874;-1.092;2023-07-13T04:10:54;7.40;;;3.97;;
9783;SDS011;4931;44.874;-1.092;2023-07-13T04:13:20;5.07;;;3.92;;
9783;SDS011;4931;44.874;-1.092;2023-07-13T04:15:46;5.75;;;3.60;;
9783;SDS011;4931;44.874;-1.092;2023-07-13T04:18:11;7.03;;;3.72;;
9783;SDS011;4931;44.874;-1.092;2023-07-13T04:20:37;5.90;;;3.60;;
9783;SDS011;4931;44.874;-1.092;2023-07-13T04:23:03;6.70;;;4.05;;
9783;SDS011;4931;44.874;-1.092;2023-07-13T04:25:28;8.05;;;3.80;;
9783;SDS011;4931;44.874;-1.092;2023-07-13T04:27:54;9.60;;;4.57;;
9783;SDS011;4931;44.874;-1.092;2023-07-13T04:30:20;7.70;;;3.60;;
9783;SDS011;4931;44.874;-1.092;2023-07-13T04:32:45;6.72;;;3.70;;
9783;SDS011;4931;44.874;-1.092;2023-07-13T04:35:11;9.20;;;4.10;;
9783;SDS011;4931;44.874;-1.092;2023-07-13T04:37:37;7.50;;;4.35;;
9783;SDS011;4931;44.874;-1.092;2023-07-13T04:40:03;7.97;;;4.40;;
9783;SDS011;4931;44.874;-1.092;2023-07-13T04:42:29;7.28;;;4.13;;
9783;SDS011;4931;44.874;-1.092;2023-07-13T04:44:55;6.28;;;4.10;;
9783;SDS011;4931;44.874;-1.092;2023-07-13T04:47:20;8.18;;;3.90;;
9783;SDS011;4931;44.874;-1.092;2023-07-13T04:49:46;10.75;;;4.10;;
9783;SDS011;4931;44.874;-1.092;2023-07-13T04:52:11;8.70;;;4.25;;
9783;SDS011;4931;44.874;-1.092;2023-07-13T04:54:37;6.50;;;4.07;;
9783;SDS011;4931;44.874;-1.092;2023-07-13T04:57:03;7.93;;;4.00;;
9783;SDS011;4931;44.874;-1.092;2023-07-13T04:59:31;6.22;;;3.67;;
9783;SDS011;4931;44.874;-1.092;2023-07-13T05:01:57;6.60;;;4.05;;
9783;SDS011;4931;44.874;-1.092;2023-07-13T05:04:23;6.13;;;3.67;;
9783;SDS011;4931;44.874;-1.092;2023-07-13T05:06:49;6.28;;;3.90;;
9783;SDS011;4931;44.874;-1.092;2023-07-13T05:09:14;6.65;;;3.75;;
9783;SDS011;4931;44.874;-1.092;2023-07-13T05:11:40;5.78;;;3.80;;
9783;SDS011;4931;44.874;-1.092;2023-07-13T05:14:05;6.90;;;3.60;;
9783;SDS011;4931;44.874;-1.092;2023-07-13T05:16:31;5.80;;;3.67;;
9783;SDS011;4931;44.874;-1.092;2023-07-13T05:18:57;4.30;;;3.45;;
9783;SDS011;4931;44.874;-1.092;2023-07-13T05:21:23;7.15;;;3.80;;
9783;SDS011;4931;44.874;-1.092;2023-07-13T05:23:49;7.88;;;3.85;;
9783;SDS011;4931;44.874;-1.092;2023-07-13T05:26:14;8.23;;;4.53;;
9783;SDS011;4931;44.874;-1.092;2023-07-13T05:28:40;6.38;;;3.63;;
9783;SDS011;4931;44.874;-1.092;2023-07-13T05:31:07;8.77;;;4.18;;
9783;SDS011;4931;44.874;-1.092;2023-07-13T05:33:33;8.93;;;4.75;;
9783;SDS011;4931;44.874;-1.092;2023-07-13T05:35:59;7.82;;;4.05;;
9783;SDS011;4931;44.874;-1.092;2023-07-13T05:38:26;6.60;;;3.97;;
9783;SDS011;4931;44.874;-1.092;2023-07-13T05:40:53;8.15;;;4.03;;
9783;SDS011;4931;44.874;-1.092;2023-07-13T05:43:20;8.75;;;4.47;;
9783;SDS011;4931;44.874;-1.092;2023-07-13T05:45:47;8.23;;;4.22;;
9783;SDS011;4931;44.874;-1.092;2023-07-13T05:48:13;7.13;;;4.00;;
9783;SDS011;4931;44.874;-1.092;2023-07-13T05:50:38;6.57;;;4.00;;
9783;SDS011;4931;44.874;-1.092;2023-07-13T05:53:04;8.10;;;4.20;;
9783;SDS011;4931;44.874;-1.092;2023-07-13T05:55:30;4.75;;;3.67;;
9783;SDS011;4931;44.874;-1.092;2023-07-13T05:57:55;7.13;;;3.70;;
9783;SDS011;4931;44.874;-1.092;2023-07-13T06:00:23;6.18;;;3.70;;
9783;SDS011;4931;44.874;-1.092;2023-07-13T06:02:49;8.75;;;3.50;;
9783;SDS011;4931;44.874;-1.092;2023-07-13T06:05:14;7.40;;;3.67;;
9783;SDS011;4931;44.874;-1.092;2023-07-13T06:07:40;6.90;;;3.45;;
9783;SDS011;4931;44.874;-1.092;2023-07-13T06:10:06;6.97;;;3.38;;
9783;SDS011;4931;44.874;-1.092;2023-07-13T06:12:32;9.80;;;3.20;;
9783;SDS011;4931;44.874;-1.092;2023-07-13T06:14:57;6.97;;;2.90;;
9783;SDS011;4931;44.874;-1.092;2023-07-13T06:17:23;6.03;;;3.00;;
9783;SDS011;4931;44.874;-1.092;2023-07-13T06:19:48;7.93;;;2.90;;
9783;SDS011;4931;44.874;-1.092;2023-07-13T06:22:14;5.50;;;2.80;;
9783;SDS011;4931;44.874;-1.092;2023-07-13T06:24:39;8.05;;;2.97;;
9783;SDS011;4931;44.874;-1.092;2023-07-13T06:27:05;7.50;;;2.72;;
9783;SDS011;4931;44.874;-1.092;2023-07-13T06:29:30;6.28;;;2.63;;
9783;SDS011;4931;44.874;-1.092;2023-07-13T06:31:56;12.55;;;2.90;;
9783;SDS011;4931;44.874;-1.092;2023-07-13T06:34:22;9.57;;;2.60;;
9783;SDS011;4931;44.874;-1.092;2023-07-13T06:36:47;5.68;;;2.58;;
9783;SDS011;4931;44.874;-1.092;2023-07-13T06:39:13;6.40;;;2.40;;
9783;SDS011;4931;44.874;-1.092;2023-07-13T06:41:39;6.88;;;2.30;;
9783;SDS011;4931;44.874;-1.092;2023-07-13T06:44:05;7.35;;;2.40;;
9783;SDS011;4931;44.874;-1.092;2023-07-13T06:46:31;5.55;;;2.28;;
9783;SDS011;4931;44.874;-1.092;2023-07-13T06:48:57;7.35;;;2.30;;
9783;SDS011;4931;44.874;-1.092;2023-07-13T06:51:22;6.30;;;2.40;;
9783;SDS011;4931;44.874;-1.092;2023-07-13T06:53:48;8.30;;;2.53;;
9783;SDS011;4931;44.874;-1.092;2023-07-13T06:56:15;7.38;;;2.22;;
9783;SDS011;4931;44.874;-1.092;2023-07-13T06:58:40;12.30;;;2.35;;
9783;SDS011;4931;44.874;-1.092;2023-07-13T07:01:06;8.15;;;2.00;;
9783;SDS011;4931;44.874;-1.092;2023-07-13T07:03:32;8.20;;;2.30;;
9783;SDS011;4931;44.874;-1.092;2023-07-13T07:06:11;9.57;;;2.03;;
9783;SDS011;4931;44.874;-1.092;2023-07-13T07:08:40;10.10;;;2.15;;
9783;SDS011;4931;44.874;-1.092;2023-07-13T07:13:34;9.25;;;2.10;;
9783;SDS011;4931;44.874;-1.092;2023-07-13T07:15:59;7.90;;;2.05;;
9783;SDS011;4931;44.874;-1.092;2023-07-13T07:18:25;13.05;;;2.40;;
9783;SDS011;4931;44.874;-1.092;2023-07-13T07:20:51;7.72;;;2.10;;
9783;SDS011;4931;44.874;-1.092;2023-07-13T07:23:17;9.77;;;1.80;;
9783;SDS011;4931;44.874;-1.092;2023-07-13T07:25:43;7.00;;;1.70;;
9783;SDS011;4931;44.874;-1.092;2023-07-13T07:28:09;4.70;;;1.58;;
9783;SDS011;4931;44.874;-1.092;2023-07-13T07:30:35;7.35;;;1.58;;
9783;SDS011;4931;44.874;-1.092;2023-07-13T07:33:01;5.65;;;1.88;;
9783;SDS011;4931;44.874;-1.092;2023-07-13T07:35:26;9.70;;;1.85;;
9783;SDS011;4931;44.874;-1.092;2023-07-13T07:37:52;6.70;;;1.73;;
9783;SDS011;4931;44.874;-1.092;2023-07-13T07:40:18;8.75;;;2.00;;
9783;SDS011;4931;44.874;-1.092;2023-07-13T07:42:44;7.03;;;1.50;;
9783;SDS011;4931;44.874;-1.092;2023-07-13T07:45:09;6.38;;;1.88;;
9783;SDS011;4931;44.874;-1.092;2023-07-13T07:47:36;7.57;;;1.50;;
9783;SDS011;4931;44.874;-1.092;2023-07-13T07:50:03;7.85;;;1.98;;
9783;SDS011;4931;44.874;-1.092;2023-07-13T07:52:29;7.30;;;1.88;;
9783;SDS011;4931;44.874;-1.092;2023-07-13T07:54:54;5.32;;;1.60;;
9783;SDS011;4931;44.874;-1.092;2023-07-13T07:57:20;7.70;;;2.15;;
9783;SDS011;4931;44.874;-1.092;2023-07-13T07:59:45;5.22;;;1.55;;
9783;SDS011;4931;44.874;-1.092;2023-07-13T08:02:11;5.78;;;1.45;;
9783;SDS011;4931;44.874;-1.092;2023-07-13T08:04:36;7.38;;;1.55;;
9783;SDS011;4931;44.874;-1.092;2023-07-13T08:07:02;9.40;;;1.80;;
9783;SDS011;4931;44.874;-1.092;2023-07-13T08:09:28;6.50;;;1.48;;
9783;SDS011;4931;44.874;-1.092;2023-07-13T08:11:54;6.35;;;1.20;;
9783;SDS011;4931;44.874;-1.092;2023-07-13T08:14:20;4.78;;;1.30;;
9783;SDS011;4931;44.874;-1.092;2023-07-13T08:16:45;5.70;;;1.50;;
9783;SDS011;4931;44.874;-1.092;2023-07-13T08:19:11;8.73;;;1.55;;
9783;SDS011;4931;44.874;-1.092;2023-07-13T08:21:37;4.75;;;1.50;;
9783;SDS011;4931;44.874;-1.092;2023-07-13T08:24:02;5.43;;;1.35;;
9783;SDS011;4931;44.874;-1.092;2023-07-13T08:26:28;4.85;;;1.38;;
9783;SDS011;4931;44.874;-1.092;2023-07-13T08:28:54;4.88;;;1.30;;
9783;SDS011;4931;44.874;-1.092;2023-07-13T08:31:19;4.78;;;1.35;;
9783;SDS011;4931;44.874;-1.092;2023-07-13T08:33:45;6.35;;;1.38;;
9783;SDS011;4931;44.874;-1.092;2023-07-13T08:36:10;5.43;;;1.38;;
9783;SDS011;4931;44.874;-1.092;2023-07-13T08:38:36;5.45;;;1.20;;
9783;SDS011;4931;44.874;-1.092;2023-07-13T08:41:03;5.13;;;1.23;;
9783;SDS011;4931;44.874;-1.092;2023-07-13T08:43:37;5.20;;;1.20;;
9783;SDS011;4931;44.874;-1.092;2023-07-13T08:46:15;4.45;;;1.50;;
9783;SDS011;4931;44.874;-1.092;2023-07-13T08:48:46;6.63;;;1.33;;
9783;SDS011;4931;44.874;-1.092;2023-07-13T08:51:21;6.40;;;1.67;;
9783;SDS011;4931;44.874;-1.092;2023-07-13T08:53:57;5.25;;;1.30;;
9783;SDS011;4931;44.874;-1.092;2023-07-13T08:56:27;9.88;;;2.03;;
9783;SDS011;4931;44.874;-1.092;2023-07-13T08:58:58;3.38;;;1.00;;
9783;SDS011;4931;44.874;-1.092;2023-07-13T09:01:35;5.00;;;1.13;;
9783;SDS011;4931;44.874;-1.092;2023-07-13T09:04:37;5.18;;;1.17;;
9783;SDS011;4931;44.874;-1.092;2023-07-13T09:10:15;6.22;;;1.40;;
9783;SDS011;4931;44.874;-1.092;2023-07-13T09:15:40;3.80;;;1.20;;
9783;SDS011;4931;44.874;-1.092;2023-07-13T09:18:14;7.43;;;1.27;;
9783;SDS011;4931;44.874;-1.092;2023-07-13T09:20:48;4.72;;;1.15;;
9783;SDS011;4931;44.874;-1.092;2023-07-13T09:23:20;4.90;;;0.90;;
9783;SDS011;4931;44.874;-1.092;2023-07-13T09:25:48;5.60;;;1.25;;
9783;SDS011;4931;44.874;-1.092;2023-07-13T09:28:24;3.13;;;1.10;;
9783;SDS011;4931;44.874;-1.092;2023-07-13T09:30:56;4.35;;;1.17;;
9783;SDS011;4931;44.874;-1.092;2023-07-13T09:33:26;6.15;;;1.40;;
9783;SDS011;4931;44.874;-1.092;2023-07-13T09:35:54;5.82;;;1.60;;
9783;SDS011;4931;44.874;-1.092;2023-07-13T09:38:22;5.15;;;1.20;;
9783;SDS011;4931;44.874;-1.092;2023-07-13T09:41:06;4.63;;;1.20;;
9783;SDS011;4931;44.874;-1.092;2023-07-13T09:46:37;5.13;;;1.67;;
9783;SDS011;4931;44.874;-1.092;2023-07-13T09:49:04;4.25;;;1.40;;
9783;SDS011;4931;44.874;-1.092;2023-07-13T09:51:30;4.60;;;1.17;;
9783;SDS011;4931;44.874;-1.092;2023-07-13T09:53:55;6.45;;;1.30;;
9783;SDS011;4931;44.874;-1.092;2023-07-13T09:56:31;5.32;;;1.17;;
9783;SDS011;4931;44.874;-1.092;2023-07-13T09:58:57;2.53;;;0.90;;
9783;SDS011;4931;44.874;-1.092;2023-07-13T10:01:37;5.10;;;1.48;;
9783;SDS011;4931;44.874;-1.092;2023-07-13T10:04:11;4.32;;;1.33;;
9783;SDS011;4931;44.874;-1.092;2023-07-13T10:06:40;4.53;;;1.10;;
9783;SDS011;4931;44.874;-1.092;2023-07-13T10:09:08;4.53;;;1.20;;
9783;SDS011;4931;44.874;-1.092;2023-07-13T10:11:35;4.18;;;1.27;;
9783;SDS011;4931;44.874;-1.092;2023-07-13T10:14:03;4.20;;;1.30;;
9783;SDS011;4931;44.874;-1.092;2023-07-13T10:16:36;5.60;;;1.20;;
9783;SDS011;4931;44.874;-1.092;2023-07-13T10:19:03;4.57;;;1.58;;
9783;SDS011;4931;44.874;-1.092;2023-07-13T10:24:49;4.82;;;1.20;;
9783;SDS011;4931;44.874;-1.092;2023-07-13T10:27:17;2.63;;;1.10;;
9783;SDS011;4931;44.874;-1.092;2023-07-13T10:29:50;5.75;;;1.25;;
9783;SDS011;4931;44.874;-1.092;2023-07-13T10:32:24;4.53;;;1.10;;
9783;SDS011;4931;44.874;-1.092;2023-07-13T10:34:50;4.22;;;1.05;;
9783;SDS011;4931;44.874;-1.092;2023-07-13T10:37:24;4.03;;;1.25;;
9783;SDS011;4931;44.874;-1.092;2023-07-13T10:39:55;4.38;;;1.20;;
9783;SDS011;4931;44.874;-1.092;2023-07-13T10:45:12;4.15;;;1.13;;
9783;SDS011;4931;44.874;-1.092;2023-07-13T10:47:43;4.75;;;1.10;;
9783;SDS011;4931;44.874;-1.092;2023-07-13T10:50:20;3.53;;;1.13;;
9783;SDS011;4931;44.874;-1.092;2023-07-13T10:52:51;3.38;;;1.15;;
9783;SDS011;4931;44.874;-1.092;2023-07-13T10:58:23;4.45;;;1.20;;
9783;SDS011;4931;44.874;-1.092;2023-07-13T11:03:31;3.50;;;1.00;;
9783;SDS011;4931;44.874;-1.092;2023-07-13T11:06:18;6.55;;;1.38;;
9783;SDS011;4931;44.874;-1.092;2023-07-13T11:09:30;6.18;;;1.45;;
9783;SDS011;4931;44.874;-1.092;2023-07-13T11:15:05;3.60;;;1.35;;
9783;SDS011;4931;44.874;-1.092;2023-07-13T11:17:37;4.68;;;1.20;;
9783;SDS011;4931;44.874;-1.092;2023-07-13T11:22:49;6.70;;;1.50;;
9783;SDS011;4931;44.874;-1.092;2023-07-13T11:27:46;4.40;;;1.35;;
9783;SDS011;4931;44.874;-1.092;2023-07-13T11:30:21;5.70;;;1.27;;
9783;SDS011;4931;44.874;-1.092;2023-07-13T11:38:36;4.45;;;1.10;;
9783;SDS011;4931;44.874;-1.092;2023-07-13T11:41:14;3.88;;;0.85;;
9783;SDS011;4931;44.874;-1.092;2023-07-13T11:43:44;3.72;;;1.02;;
9783;SDS011;4931;44.874;-1.092;2023-07-13T11:46:21;4.22;;;1.10;;
9783;SDS011;4931;44.874;-1.092;2023-07-13T11:48:48;4.07;;;1.20;;
9783;SDS011;4931;44.874;-1.092;2023-07-13T11:51:29;4.97;;;1.10;;
9783;SDS011;4931;44.874;-1.092;2023-07-13T11:53:58;6.70;;;1.10;;
9783;SDS011;4931;44.874;-1.092;2023-07-13T11:56:28;3.95;;;1.08;;
9783;SDS011;4931;44.874;-1.092;2023-07-13T11:58:54;4.22;;;1.00;;
9783;SDS011;4931;44.874;-1.092;2023-07-13T12:01:23;2.80;;;1.10;;
9783;SDS011;4931;44.874;-1.092;2023-07-13T12:03:57;3.15;;;1.00;;
9783;SDS011;4931;44.874;-1.092;2023-07-13T12:09:00;3.83;;;1.30;;
9783;SDS011;4931;44.874;-1.092;2023-07-13T12:11:28;4.13;;;1.00;;
9783;SDS011;4931;44.874;-1.092;2023-07-13T12:13:55;2.40;;;0.90;;
9783;SDS011;4931;44.874;-1.092;2023-07-13T12:16:29;4.40;;;1.10;;
9783;SDS011;4931;44.874;-1.092;2023-07-13T12:18:57;2.75;;;1.08;;
9783;SDS011;4931;44.874;-1.092;2023-07-13T12:21:31;6.93;;;1.23;;
9783;SDS011;4931;44.874;-1.092;2023-07-13T12:24:00;5.25;;;1.13;;
9783;SDS011;4931;44.874;-1.092;2023-07-13T12:26:29;3.70;;;0.98;;
9783;SDS011;4931;44.874;-1.092;2023-07-13T12:28:56;3.47;;;1.10;;
9783;SDS011;4931;44.874;-1.092;2023-07-13T12:31:25;4.78;;;1.00;;
9783;SDS011;4931;44.874;-1.092;2023-07-13T12:33:56;3.72;;;0.95;;
9783;SDS011;4931;44.874;-1.092;2023-07-13T12:36:34;2.75;;;1.02;;
9783;SDS011;4931;44.874;-1.092;2023-07-13T12:39:04;3.58;;;0.90;;
9783;SDS011;4931;44.874;-1.092;2023-07-13T12:41:37;5.82;;;1.08;;
9783;SDS011;4931;44.874;-1.092;2023-07-13T12:44:04;5.43;;;1.05;;
9783;SDS011;4931;44.874;-1.092;2023-07-13T12:46:34;2.58;;;0.80;;
9783;SDS011;4931;44.874;-1.092;2023-07-13T12:49:00;3.70;;;0.80;;
9783;SDS011;4931;44.874;-1.092;2023-07-13T12:51:32;4.25;;;1.30;;
9783;SDS011;4931;44.874;-1.092;2023-07-13T12:53:58;4.38;;;1.13;;
9783;SDS011;4931;44.874;-1.092;2023-07-13T12:56:43;2.42;;;1.15;;
9783;SDS011;4931;44.874;-1.092;2023-07-13T12:59:14;3.22;;;1.08;;
9783;SDS011;4931;44.874;-1.092;2023-07-13T13:01:44;4.75;;;1.10;;
9783;SDS011;4931;44.874;-1.092;2023-07-13T13:04:11;3.13;;;1.00;;
9783;SDS011;4931;44.874;-1.092;2023-07-13T13:06:38;5.65;;;1.15;;
9783;SDS011;4931;44.874;-1.092;2023-07-13T13:09:06;3.80;;;1.15;;
9783;SDS011;4931;44.874;-1.092;2023-07-13T13:11:37;5.38;;;1.15;;
9783;SDS011;4931;44.874;-1.092;2023-07-13T13:14:02;4.93;;;1.15;;
9783;SDS011;4931;44.874;-1.092;2023-07-13T13:16:30;5.07;;;1.05;;
9783;SDS011;4931;44.874;-1.092;2023-07-13T13:18:57;3.55;;;1.08;;
9783;SDS011;4931;44.874;-1.092;2023-07-13T13:21:27;3.03;;;1.02;;
9783;SDS011;4931;44.874;-1.092;2023-07-13T13:23:53;4.80;;;1.10;;
9783;SDS011;4931;44.874;-1.092;2023-07-13T13:26:19;3.25;;;1.20;;
9783;SDS011;4931;44.874;-1.092;2023-07-13T13:28:46;2.97;;;0.93;;
9783;SDS011;4931;44.874;-1.092;2023-07-13T13:31:13;3.28;;;1.10;;
9783;SDS011;4931;44.874;-1.092;2023-07-13T13:33:40;2.60;;;1.10;;
9783;SDS011;4931;44.874;-1.092;2023-07-13T13:36:18;3.53;;;1.20;;
9783;SDS011;4931;44.874;-1.092;2023-07-13T13:38:47;3.53;;;1.20;;
9783;SDS011;4931;44.874;-1.092;2023-07-13T13:41:13;3.47;;;1.00;;
9783;SDS011;4931;44.874;-1.092;2023-07-13T13:43:40;4.75;;;1.20;;
9783;SDS011;4931;44.874;-1.092;2023-07-13T13:46:14;4.20;;;1.10;;
9783;SDS011;4931;44.874;-1.092;2023-07-13T13:48:43;3.60;;;1.20;;
9783;SDS011;4931;44.874;-1.092;2023-07-13T13:51:13;6.63;;;1.30;;
9783;SDS011;4931;44.874;-1.092;2023-07-13T13:53:46;5.03;;;0.88;;
9783;SDS011;4931;44.874;-1.092;2023-07-13T13:56:13;3.22;;;0.90;;
9783;SDS011;4931;44.874;-1.092;2023-07-13T13:58:39;3.20;;;1.10;;
9783;SDS011;4931;44.874;-1.092;2023-07-13T14:01:08;2.83;;;0.95;;
9783;SDS011;4931;44.874;-1.092;2023-07-13T14:03:40;4.38;;;1.10;;
9783;SDS011;4931;44.874;-1.092;2023-07-13T14:06:07;3.58;;;1.02;;
9783;SDS011;4931;44.874;-1.092;2023-07-13T14:08:35;3.50;;;1.13;;
9783;SDS011;4931;44.874;-1.092;2023-07-13T14:11:00;4.13;;;1.10;;
9783;SDS011;4931;44.874;-1.092;2023-07-13T14:13:27;3.92;;;1.15;;
9783;SDS011;4931;44.874;-1.092;2023-07-13T14:15:55;2.58;;;0.93;;
9783;SDS011;4931;44.874;-1.092;2023-07-13T14:18:21;5.13;;;1.20;;
9783;SDS011;4931;44.874;-1.092;2023-07-13T14:20:47;4.47;;;1.27;;
9783;SDS011;4931;44.874;-1.092;2023-07-13T14:23:14;3.85;;;1.20;;
9783;SDS011;4931;44.874;-1.092;2023-07-13T14:25:41;3.72;;;0.90;;
9783;SDS011;4931;44.874;-1.092;2023-07-13T14:28:13;2.92;;;1.02;;
9783;SDS011;4931;44.874;-1.092;2023-07-13T14:30:52;4.05;;;1.10;;
9783;SDS011;4931;44.874;-1.092;2023-07-13T14:33:19;5.43;;;1.02;;
9783;SDS011;4931;44.874;-1.092;2023-07-13T14:35:45;2.30;;;0.90;;
9783;SDS011;4931;44.874;-1.092;2023-07-13T14:38:15;4.85;;;1.20;;
9783;SDS011;4931;44.874;-1.092;2023-07-13T14:40:44;3.45;;;0.80;;
9783;SDS011;4931;44.874;-1.092;2023-07-13T14:43:11;3.47;;;1.10;;
9783;SDS011;4931;44.874;-1.092;2023-07-13T14:45:41;7.10;;;1.50;;
9783;SDS011;4931;44.874;-1.092;2023-07-13T14:48:20;2.97;;;1.30;;
9783;SDS011;4931;44.874;-1.092;2023-07-13T14:50:50;4.07;;;0.95;;
9783;SDS011;4931;44.874;-1.092;2023-07-13T14:55:45;3.13;;;0.88;;
9783;SDS011;4931;44.874;-1.092;2023-07-13T14:58:11;4.53;;;1.00;;
9783;SDS011;4931;44.874;-1.092;2023-07-13T15:00:38;2.70;;;0.88;;
9783;SDS011;4931;44.874;-1.092;2023-07-13T15:03:05;4.07;;;1.00;;
9783;SDS011;4931;44.874;-1.092;2023-07-13T15:05:56;4.50;;;1.23;;
9783;SDS011;4931;44.874;-1.092;2023-07-13T15:08:21;3.55;;;1.10;;
9783;SDS011;4931;44.874;-1.092;2023-07-13T15:10:47;3.88;;;1.05;;
9783;SDS011;4931;44.874;-1.092;2023-07-13T15:15:44;4.78;;;0.98;;
9783;SDS011;4931;44.874;-1.092;2023-07-13T15:18:11;4.18;;;1.02;;
9783;SDS011;4931;44.874;-1.092;2023-07-13T15:20:39;3.90;;;0.80;;
9783;SDS011;4931;44.874;-1.092;2023-07-13T15:23:05;4.35;;;1.02;;
9783;SDS011;4931;44.874;-1.092;2023-07-13T15:25:32;4.38;;;1.35;;
9783;SDS011;4931;44.874;-1.092;2023-07-13T15:27:58;4.18;;;1.23;;
9783;SDS011;4931;44.874;-1.092;2023-07-13T15:30:25;4.65;;;1.00;;
9783;SDS011;4931;44.874;-1.092;2023-07-13T15:32:54;5.50;;;1.00;;
9783;SDS011;4931;44.874;-1.092;2023-07-13T15:35:24;3.90;;;1.00;;
9783;SDS011;4931;44.874;-1.092;2023-07-13T15:37:50;4.53;;;1.17;;
9783;SDS011;4931;44.874;-1.092;2023-07-13T15:40:16;4.72;;;1.20;;
9783;SDS011;4931;44.874;-1.092;2023-07-13T15:42:42;4.65;;;0.80;;
9783;SDS011;4931;44.874;-1.092;2023-07-13T15:47:44;7.13;;;1.20;;
9783;SDS011;4931;44.874;-1.092;2023-07-13T15:50:18;3.17;;;1.02;;
9783;SDS011;4931;44.874;-1.092;2023-07-13T15:52:51;3.50;;;0.85;;